Latest Coastal Weather Observations for Point Fawcett

IDD60701

Issued at 1:55 pm CST Thursday 21 August 2014 (issued every 10 minutes, with the page automatically refreshed every 10 minutes)

About coastal observations | Map of coastal stations | Coastal observations for NT | Marine services | Other Formats
Station Details ID: 200731 Name: POINT FAWCETT Lat: -11.76 Lon: 130.03 Height: 6.5 m
Data from the previous 72 hours. | See also: Recent months at Point Fawcett
Date/Time
CST
Temp

°C
Wind Pressure Rain
since 9am
mm
Weather Cloud Vis
km
Sea
Height
m
Swell
Dir
 
Speed
knots
Gust
knots
hPa Trend Height
m
Period
s
Dir
21/01:30pm 29.3 ESE 9 15 1013.4 - - - - - - - - -
21/01:00pm 30.0 ESE 9 16 1013.8 - - - - - - - - -
21/12:30pm 29.5 SE 10 17 1014.1 - - - - - - - - -
21/12:00pm 29.3 ESE 9 20 1014.4 - - - - - - - - -
21/11:30am 28.9 ESE 8 17 1014.7 - - - - - - - - -
21/11:00am 27.8 SE 8 14 1014.9 - - - - - - - - -
21/10:30am 27.9 ESE 7 13 1015.1 - - - - - - - - -
21/10:00am 27.2 ESE 9 15 1015.2 - - - - - - - - -
21/09:30am 26.6 SE 7 13 1015.2 - - - - - - - - -
21/09:00am 23.8 SSE 4 7 1015.0 - - - - - - - - -
21/08:30am 21.8 SSE 3 5 1014.8 - - - - - - - - -
21/08:00am 18.5 ESE 3 4 1014.4 - - - - - - - - -
21/07:30am 16.1 ESE 4 5 1014.0 - - - - - - - - -
21/07:00am 15.5 ESE 4 5 1013.5 - - - - - - - - -
21/06:30am 15.4 ESE 4 5 1013.0 - - - - - - - - -
21/06:00am 15.8 ESE 4 4 1012.7 - - - - - - - - -
21/05:30am 15.6 SE 4 4 1012.4 - - - - - - - - -
21/05:00am 15.8 SSE 4 4 1012.5 - - - - - - - - -
21/04:30am 16.0 SSE 4 4 1012.6 - - - - - - - - -
21/04:00am 16.2 SSE 4 4 1012.6 - - - - - - - - -
21/03:30am 16.4 S 4 5 1012.8 - - - - - - - - -
21/03:00am 16.7 SSE 4 5 1013.0 - - - - - - - - -
21/02:30am 16.8 SSE 4 5 1013.4 - - - - - - - - -
21/02:00am 17.0 SE 4 4 1013.5 - - - - - - - - -
21/01:30am 17.2 SSE 4 4 1013.8 - - - - - - - - -
21/01:00am 17.4 CALM 0 0 1014.0 - - - - - - - - -
21/12:30am 17.8 CALM 0 0 1014.3 - - - - - - - - -
21/12:00am 18.3 SSE 0 0 1014.5 - - - - - - - - -
 
Date/Time
CST
Temp

°C
Wind Pressure Rain
since 9am
mm
Weather Cloud Vis
km
Sea
Height
m
Swell
Dir
 
Speed
knots
Gust
knots
hPa Trend Height
m
Period
s
Dir
20/11:30pm 19.1 CALM 0 0 1014.6 - - - - - - - - -
20/11:00pm 20.7 NE 1 4 1014.6 - - - - - - - - -
20/10:30pm 23.7 N 4 7 1014.7 - - - - - - - - -
20/10:00pm 24.1 N 7 9 1014.6 - - - - - - - - -
20/09:30pm 24.2 N 8 10 1014.5 - - - - - - - - -
20/09:00pm 24.2 N 7 9 1014.3 - - - - - - - - -
20/08:30pm 24.5 N 7 11 1013.9 - - - - - - - - -
20/08:00pm 24.4 N 6 9 1013.7 - - - - - - - - -
20/07:30pm 24.5 NNW 6 7 1013.5 - - - - - - - - -
20/07:00pm 24.6 NNW 5 7 1013.4 - - - - - - - - -
20/06:30pm 25.3 NNW 5 6 1013.3 - - - - - - - - -
20/06:00pm 26.2 NW 6 8 1013.0 - - - - - - - - -
20/05:30pm 26.7 NNW 6 8 1012.9 - - - - - - - - -
20/05:00pm 27.6 NNW 6 8 1012.8 - - - - - - - - -
20/04:30pm 28.3 NW 8 10 1012.6 - - - - - - - - -
20/04:00pm 28.6 NW 9 11 1012.6 - - - - - - - - -
20/03:30pm 28.9 NNW 9 13 1012.7 - - - - - - - - -
20/03:00pm 29.9 NW 7 11 1012.9 - - - - - - - - -
20/02:30pm 29.3 NNW 11 15 1013.1 - - - - - - - - -
20/02:00pm 30.3 WNW 5 9 1013.3 - - - - - - - - -
20/01:30pm 29.5 WNW 8 11 1013.6 - - - - - - - - -
20/01:00pm 29.2 WNW 7 11 1014.1 - - - - - - - - -
20/12:30pm 29.2 NNW 5 7 1014.5 - - - - - - - - -
20/12:00pm 29.9 E 6 9 1014.9 - - - - - - - - -
20/11:30am 29.0 ESE 6 10 1015.3 - - - - - - - - -
20/11:00am 28.6 E 9 14 1015.6 - - - - - - - - -
20/10:30am 28.0 SE 7 12 1016.0 - - - - - - - - -
20/10:00am 27.6 ESE 7 14 1016.1 - - - - - - - - -
20/09:30am 26.0 SE 6 10 1016.0 - - - - - - - - -
20/09:00am 23.9 ESE 4 6 1015.8 - - - - - - - - -
20/08:30am 21.0 ESE 2 4 1015.7 - - - - - - - - -
20/08:00am 17.6 ESE 4 5 1015.5 - - - - - - - - -
20/07:30am 15.1 ESE 4 5 1015.3 - - - - - - - - -
20/07:00am 14.5 ESE 4 5 1015.1 - - - - - - - - -
20/06:30am 14.7 SE 4 5 1014.9 - - - - - - - - -
20/06:00am 14.6 SE 4 4 1014.5 - - - - - - - - -
20/05:30am 14.9 SE 4 4 1014.2 - - - - - - - - -
20/05:00am 15.1 SSE 4 5 1013.9 - - - - - - - - -
20/04:30am 15.4 SSE 4 4 1013.9 - - - - - - - - -
20/04:00am 15.7 S 4 5 1014.1 - - - - - - - - -
20/03:30am 16.0 S 4 5 1014.3 - - - - - - - - -
20/03:00am 16.1 S 4 5 1014.4 - - - - - - - - -
20/02:30am 16.5 S 4 5 1014.5 - - - - - - - - -
20/02:00am 16.5 SW 3 5 1014.6 - - - - - - - - -
20/01:30am 16.8 CALM 0 3 1014.8 - - - - - - - - -
20/01:00am 17.2 WSW 1 3 1014.9 - - - - - - - - -
20/12:30am 17.6 SW 2 3 1015.1 - - - - - - - - -
20/12:00am 18.5 WNW 3 4 1015.1 - - - - - - - - -
 
Date/Time
CST
Temp

°C
Wind Pressure Rain
since 9am
mm
Weather Cloud Vis
km
Sea
Height
m
Swell
Dir
 
Speed
knots
Gust
knots
hPa Trend Height
m
Period
s
Dir
19/11:30pm 21.5 NW 6 7 1015.2 - - - - - - - - -
19/11:00pm 23.3 NNW 6 7 1015.1 - - - - - - - - -
19/10:30pm 23.6 N 5 8 1015.1 - - - - - - - - -
19/10:00pm 23.6 N 6 8 1014.9 - - - - - - - - -
19/09:30pm 23.7 N 5 7 1014.7 - - - - - - - - -
19/09:00pm 23.4 N 6 9 1014.4 - - - - - - - - -
19/08:30pm 21.6 N 4 6 1014.3 - - - - - - - - -
19/08:00pm 23.5 N 4 6 1014.1 - - - - - - - - -
19/07:30pm 24.1 N 5 7 1013.8 - - - - - - - - -
19/07:00pm 24.5 N 6 8 1013.4 - - - - - - - - -
19/06:30pm 25.1 NNW 6 8 1013.1 - - - - - - - - -
19/06:00pm 26.1 NNW 7 9 1012.9 - - - - - - - - -
19/05:30pm 26.9 NNW 6 8 1013.0 - - - - - - - - -
19/05:00pm 27.0 NNW 8 11 1013.0 - - - - - - - - -
19/04:30pm 27.7 NW 7 10 1013.0 - - - - - - - - -
19/04:00pm 28.8 NNE 7 12 1013.0 - - - - - - - - -
19/03:30pm 28.6 WSW 6 11 1013.2 - - - - - - - - -
19/03:00pm 28.5 W 6 10 1013.5 - - - - - - - - -
19/02:30pm 27.6 W 5 7 1013.8 - - - - - - - - -
19/02:00pm 28.2 WNW 6 8 1014.2 - - - - - - - - -
19/01:30pm 28.4 WNW 6 7 1014.6 - - - - - - - - -
19/01:00pm 28.6 NNW 7 9 1015.0 - - - - - - - - -
19/12:30pm 28.7 NNW 8 10 1015.5 - - - - - - - - -
19/12:00pm 29.1 N 6 9 1016.1 - - - - - - - - -
19/11:30am 29.5 ENE 5 8 1016.3 - - - - - - - - -
19/11:00am 28.7 E 7 11 1016.8 - - - - - - - - -
19/10:30am 27.6 ESE 8 13 1017.2 - - - - - - - - -
19/10:00am 26.8 SE 8 13 1017.0 - - - - - - - - -
19/09:30am 26.5 ESE 8 16 1016.8 - - - - - - - - -
19/09:00am 25.4 ESE 6 9 1016.5 - - - - - - - - -
19/08:30am 21.7 SSE 4 6 1016.5 - - - - - - - - -
19/08:00am 17.3 SSE 4 6 1016.2 - - - - - - - - -
19/07:30am 14.3 SSE 4 6 1015.9 - - - - - - - - -
19/07:00am 13.3 S 5 6 1015.7 - - - - - - - - -
19/06:30am 13.4 SSE 4 5 1015.6 - - - - - - - - -
19/06:00am 13.5 SSE 4 5 1015.4 - - - - - - - - -
19/05:30am 13.5 SSE 4 5 1015.3 - - - - - - - - -
19/05:00am 13.7 SSE 4 5 1015.2 - - - - - - - - -
19/04:30am 13.8 SSE 4 5 1015.3 - - - - - - - - -
19/04:00am 13.8 S 5 6 1015.3 - - - - - - - - -
19/03:30am 13.9 SSE 4 5 1015.2 - - - - - - - - -
19/03:00am 14.4 SSE 5 5 1015.3 - - - - - - - - -
19/02:30am 14.5 SSE 4 5 1015.4 - - - - - - - - -
19/02:00am 14.3 SSE 4 5 1015.5 - - - - - - - - -
19/01:30am 14.3 SSE 4 4 1015.6 - - - - - - - - -
19/01:00am 14.4 SE 4 5 1015.7 - - - - - - - - -
19/12:30am 14.4 SSE 4 4 1015.9 - - - - - - - - -
19/12:00am 14.8 SSW 4 5 1015.9 - - - - - - - - -
 
Date/Time
CST
Temp

°C
Wind Pressure Rain
since 9am
mm
Weather Cloud Vis
km
Sea
Height
m
Swell
Dir
 
Speed
knots
Gust
knots
hPa Trend Height
m
Period
s
Dir
18/11:30pm 14.5 SSW 3 5 1015.9 - - - - - - - - -
18/11:00pm 14.5 SW 3 5 1016.1 - - - - - - - - -
18/10:30pm 14.7 W 2 4 1016.0 - - - - - - - - -
18/10:00pm 14.7 W 2 4 1015.8 - - - - - - - - -
18/09:30pm 14.8 CALM 0 0 1015.7 - - - - - - - - -
18/09:00pm 15.0 CALM 0 0 1015.6 - - - - - - - - -
18/08:30pm 15.5 CALM 0 0 1015.3 - - - - - - - - -
18/08:00pm 16.6 CALM 0 0 1014.8 - - - - - - - - -
18/07:30pm 17.9 CALM 0 0 1014.6 - - - - - - - - -
18/07:00pm 20.1 CALM 0 0 1014.3 - - - - - - - - -
18/06:30pm 24.0 CALM 0 0 1014.1 - - - - - - - - -
18/06:00pm 27.3 SE 2 3 1013.9 - - - - - - - - -
18/05:30pm 28.0 ESE 3 6 1013.7 - - - - - - - - -
18/05:00pm 28.4 ESE 5 8 1013.6 - - - - - - - - -
18/04:30pm 28.7 ESE 7 9 1013.6 - - - - - - - - -
18/04:00pm 28.8 ESE 7 11 1013.5 - - - - - - - - -
18/03:30pm 28.7 ESE 7 13 1013.6 - - - - - - - - -
18/03:00pm 29.0 ESE 8 12 1013.7 - - - - - - - - -
18/02:30pm 29.1 ESE 8 15 1013.9 - - - - - - - - -
18/02:00pm 28.6 ESE 8 13 1014.3 - - - - - - - - -

Other Formats:

Comma delimited format used in spreadsheet applications
http://www.bom.gov.au/fwo/IDD60701/IDD60701.94122.axf

JavaScript Object Notation format (JSON) in row-major order
http://www.bom.gov.au/fwo/IDD60701/IDD60701.94122.json